sensor_id;sensor_type;location;lat;lon;timestamp;pressure;altitude;pressure_sealevel;temperature;humidity
65329;BME280;51941;52.210;5.158;2023-03-19T00:01:46;100970.16;;;12.24;100.00
65329;BME280;51941;52.210;5.158;2023-03-19T00:04:14;100970.38;;;12.23;100.00
65329;BME280;51941;52.210;5.158;2023-03-19T00:06:41;100964.28;;;12.22;100.00
65329;BME280;51941;52.210;5.158;2023-03-19T00:09:08;100932.19;;;11.95;100.00
65329;BME280;51941;52.210;5.158;2023-03-19T00:11:36;100964.19;;;12.17;100.00
65329;BME280;51941;52.210;5.158;2023-03-19T00:14:03;100973.44;;;12.14;100.00
65329;BME280;51941;52.210;5.158;2023-03-19T00:16:30;100958.19;;;12.10;100.00
65329;BME280;51941;52.210;5.158;2023-03-19T00:18:57;100970.41;;;12.11;100.00
65329;BME280;51941;52.210;5.158;2023-03-19T00:21:23;100977.31;;;12.12;100.00
65329;BME280;51941;52.210;5.158;2023-03-19T00:23:50;100969.50;;;12.05;100.00
65329;BME280;51941;52.210;5.158;2023-03-19T00:26:17;100973.31;;;12.09;100.00
65329;BME280;51941;52.210;5.158;2023-03-19T00:28:45;100980.25;;;12.10;100.00
65329;BME280;51941;52.210;5.158;2023-03-19T00:31:14;100950.75;;;11.95;100.00
65329;BME280;51941;52.210;5.158;2023-03-19T00:33:42;100978.84;;;12.08;100.00
65329;BME280;51941;52.210;5.158;2023-03-19T00:36:09;100954.44;;;11.94;100.00
65329;BME280;51941;52.210;5.158;2023-03-19T00:38:37;100978.34;;;12.11;100.00
65329;BME280;51941;52.210;5.158;2023-03-19T00:41:05;100986.59;;;12.09;100.00
65329;BME280;51941;52.210;5.158;2023-03-19T00:43:32;100957.66;;;11.96;100.00
65329;BME280;51941;52.210;5.158;2023-03-19T00:46:00;100983.44;;;12.12;100.00
65329;BME280;51941;52.210;5.158;2023-03-19T00:48:27;100965.38;;;11.98;100.00
65329;BME280;51941;52.210;5.158;2023-03-19T00:50:54;100990.28;;;12.08;100.00
65329;BME280;51941;52.210;5.158;2023-03-19T00:53:21;100989.13;;;12.04;100.00
65329;BME280;51941;52.210;5.158;2023-03-19T00:55:48;100991.31;;;12.07;100.00
65329;BME280;51941;52.210;5.158;2023-03-19T00:58:16;100986.81;;;12.08;100.00
65329;BME280;51941;52.210;5.158;2023-03-19T01:00:46;100981.97;;;12.05;100.00
65329;BME280;51941;52.210;5.158;2023-03-19T01:03:14;100990.75;;;12.05;100.00
65329;BME280;51941;52.210;5.158;2023-03-19T01:05:41;100993.97;;;12.07;100.00
65329;BME280;51941;52.210;5.158;2023-03-19T01:08:08;100998.34;;;12.02;100.00
65329;BME280;51941;52.210;5.158;2023-03-19T01:10:34;100994.56;;;11.98;100.00
65329;BME280;51941;52.210;5.158;2023-03-19T01:13:03;100995.38;;;11.98;100.00
65329;BME280;51941;52.210;5.158;2023-03-19T01:15:34;100998.84;;;11.99;100.00
65329;BME280;51941;52.210;5.158;2023-03-19T01:18:01;101002.19;;;11.94;100.00
65329;BME280;51941;52.210;5.158;2023-03-19T01:20:29;100999.44;;;11.89;100.00
65329;BME280;51941;52.210;5.158;2023-03-19T01:22:56;100995.53;;;11.92;100.00
65329;BME280;51941;52.210;5.158;2023-03-19T01:25:23;101001.28;;;11.89;100.00
65329;BME280;51941;52.210;5.158;2023-03-19T01:27:59;101002.78;;;11.85;100.00
65329;BME280;51941;52.210;5.158;2023-03-19T01:30:27;100993.13;;;11.78;100.00
65329;BME280;51941;52.210;5.158;2023-03-19T01:33:13;100982.66;;;11.60;100.00
65329;BME280;51941;52.210;5.158;2023-03-19T01:35:53;100996.97;;;11.59;100.00
65329;BME280;51941;52.210;5.158;2023-03-19T01:38:26;100995.25;;;11.53;100.00
65329;BME280;51941;52.210;5.158;2023-03-19T01:40:59;100995.97;;;11.49;100.00
65329;BME280;51941;52.210;5.158;2023-03-19T01:43:27;100987.06;;;11.43;100.00
65329;BME280;51941;52.210;5.158;2023-03-19T01:46:23;100996.78;;;11.37;100.00
65329;BME280;51941;52.210;5.158;2023-03-19T01:49:20;100986.28;;;11.19;100.00
65329;BME280;51941;52.210;5.158;2023-03-19T01:52:03;100989.75;;;11.20;100.00
65329;BME280;51941;52.210;5.158;2023-03-19T01:54:53;100973.72;;;11.15;100.00
65329;BME280;51941;52.210;5.158;2023-03-19T01:57:39;101002.06;;;11.26;100.00
65329;BME280;51941;52.210;5.158;2023-03-19T02:00:30;100992.97;;;11.10;100.00
65329;BME280;51941;52.210;5.158;2023-03-19T02:03:00;101004.22;;;11.05;100.00
65329;BME280;51941;52.210;5.158;2023-03-19T02:05:56;101003.44;;;10.93;100.00
65329;BME280;51941;52.210;5.158;2023-03-19T02:08:26;101004.00;;;10.84;100.00
65329;BME280;51941;52.210;5.158;2023-03-19T02:10:54;101011.47;;;10.75;100.00
65329;BME280;51941;52.210;5.158;2023-03-19T02:13:21;101006.69;;;10.65;100.00
65329;BME280;51941;52.210;5.158;2023-03-19T02:15:48;100983.75;;;10.48;100.00
65329;BME280;51941;52.210;5.158;2023-03-19T02:18:16;101014.25;;;10.62;100.00
65329;BME280;51941;52.210;5.158;2023-03-19T02:20:49;100999.28;;;10.56;100.00
65329;BME280;51941;52.210;5.158;2023-03-19T02:23:29;100997.47;;;10.56;100.00
65329;BME280;51941;52.210;5.158;2023-03-19T02:26:05;100981.84;;;10.37;100.00
65329;BME280;51941;52.210;5.158;2023-03-19T02:28:36;101009.84;;;10.44;100.00
65329;BME280;51941;52.210;5.158;2023-03-19T02:31:04;101015.00;;;10.39;100.00
65329;BME280;51941;52.210;5.158;2023-03-19T02:33:31;101014.88;;;10.34;100.00
65329;BME280;51941;52.210;5.158;2023-03-19T02:36:00;101015.97;;;10.26;100.00
65329;BME280;51941;52.210;5.158;2023-03-19T02:38:29;101019.44;;;10.27;100.00
65329;BME280;51941;52.210;5.158;2023-03-19T02:41:00;101018.28;;;10.23;100.00
65329;BME280;51941;52.210;5.158;2023-03-19T02:43:29;101004.28;;;10.04;100.00
65329;BME280;51941;52.210;5.158;2023-03-19T02:45:57;101021.25;;;10.15;100.00
65329;BME280;51941;52.210;5.158;2023-03-19T02:48:24;101024.31;;;10.12;100.00
65329;BME280;51941;52.210;5.158;2023-03-19T02:50:51;101028.00;;;10.11;100.00
65329;BME280;51941;52.210;5.158;2023-03-19T02:53:18;101022.34;;;10.07;100.00
65329;BME280;51941;52.210;5.158;2023-03-19T02:55:45;101034.69;;;10.13;100.00
65329;BME280;51941;52.210;5.158;2023-03-19T02:58:12;101024.69;;;10.15;100.00
65329;BME280;51941;52.210;5.158;2023-03-19T03:00:40;101034.25;;;10.16;100.00
65329;BME280;51941;52.210;5.158;2023-03-19T03:03:07;100994.75;;;9.85;100.00
65329;BME280;51941;52.210;5.158;2023-03-19T03:05:34;101038.13;;;10.14;100.00
65329;BME280;51941;52.210;5.158;2023-03-19T03:08:01;101034.00;;;10.18;100.00
65329;BME280;51941;52.210;5.158;2023-03-19T03:10:29;101041.13;;;10.17;100.00
65329;BME280;51941;52.210;5.158;2023-03-19T03:12:56;101036.91;;;10.16;100.00
65329;BME280;51941;52.210;5.158;2023-03-19T03:15:23;101005.00;;;9.93;100.00
65329;BME280;51941;52.210;5.158;2023-03-19T03:17:51;101015.16;;;9.96;100.00
65329;BME280;51941;52.210;5.158;2023-03-19T03:20:18;101035.94;;;10.11;100.00
65329;BME280;51941;52.210;5.158;2023-03-19T03:22:45;101037.13;;;10.15;100.00
65329;BME280;51941;52.210;5.158;2023-03-19T03:25:13;101036.09;;;10.16;100.00
65329;BME280;51941;52.210;5.158;2023-03-19T03:27:40;101037.31;;;10.13;100.00
65329;BME280;51941;52.210;5.158;2023-03-19T03:30:08;101003.91;;;9.82;100.00
65329;BME280;51941;52.210;5.158;2023-03-19T03:32:36;101037.34;;;9.95;100.00
65329;BME280;51941;52.210;5.158;2023-03-19T03:35:05;101033.59;;;9.84;100.00
65329;BME280;51941;52.210;5.158;2023-03-19T03:37:32;100995.34;;;9.50;100.00
65329;BME280;51941;52.210;5.158;2023-03-19T03:39:59;101036.00;;;9.68;100.00
65329;BME280;51941;52.210;5.158;2023-03-19T03:42:31;101017.66;;;9.54;100.00
65329;BME280;51941;52.210;5.158;2023-03-19T03:44:58;101030.06;;;9.54;100.00
65329;BME280;51941;52.210;5.158;2023-03-19T03:47:25;101035.41;;;9.47;100.00
65329;BME280;51941;52.210;5.158;2023-03-19T03:49:52;101038.91;;;9.41;100.00
65329;BME280;51941;52.210;5.158;2023-03-19T03:52:20;101039.78;;;9.35;100.00
65329;BME280;51941;52.210;5.158;2023-03-19T03:54:47;101037.22;;;9.29;100.00
65329;BME280;51941;52.210;5.158;2023-03-19T03:57:14;101024.28;;;9.14;100.00
65329;BME280;51941;52.210;5.158;2023-03-19T03:59:41;101033.00;;;9.21;100.00
65329;BME280;51941;52.210;5.158;2023-03-19T04:02:08;101017.06;;;9.03;100.00
65329;BME280;51941;52.210;5.158;2023-03-19T04:04:34;101038.31;;;9.14;100.00
65329;BME280;51941;52.210;5.158;2023-03-19T04:07:01;101041.38;;;9.11;100.00
65329;BME280;51941;52.210;5.158;2023-03-19T04:09:38;101026.47;;;8.99;100.00
65329;BME280;51941;52.210;5.158;2023-03-19T04:12:05;101033.72;;;9.03;100.00
65329;BME280;51941;52.210;5.158;2023-03-19T04:14:31;101016.78;;;8.86;100.00
65329;BME280;51941;52.210;5.158;2023-03-19T04:16:58;101040.09;;;8.96;100.00
65329;BME280;51941;52.210;5.158;2023-03-19T04:19:25;101036.88;;;8.94;100.00
65329;BME280;51941;52.210;5.158;2023-03-19T04:21:52;101033.25;;;8.88;100.00
65329;BME280;51941;52.210;5.158;2023-03-19T04:24:19;101035.50;;;8.85;100.00
65329;BME280;51941;52.210;5.158;2023-03-19T04:26:47;101029.25;;;8.79;100.00
65329;BME280;51941;52.210;5.158;2023-03-19T04:29:15;101018.94;;;8.71;100.00
65329;BME280;51941;52.210;5.158;2023-03-19T04:31:43;101034.72;;;8.77;100.00
65329;BME280;51941;52.210;5.158;2023-03-19T04:34:11;101030.06;;;8.79;100.00
65329;BME280;51941;52.210;5.158;2023-03-19T04:36:38;100986.84;;;8.49;100.00
65329;BME280;51941;52.210;5.158;2023-03-19T04:39:05;101038.72;;;8.87;100.00
65329;BME280;51941;52.210;5.158;2023-03-19T04:41:32;101045.00;;;8.92;100.00
65329;BME280;51941;52.210;5.158;2023-03-19T04:44:13;101053.47;;;9.01;100.00
65329;BME280;51941;52.210;5.158;2023-03-19T04:46:41;101055.63;;;9.10;100.00
65329;BME280;51941;52.210;5.158;2023-03-19T04:49:09;101053.78;;;9.17;100.00
65329;BME280;51941;52.210;5.158;2023-03-19T04:51:36;101045.19;;;9.22;100.00
65329;BME280;51941;52.210;5.158;2023-03-19T04:54:03;101048.63;;;9.23;100.00
65329;BME280;51941;52.210;5.158;2023-03-19T04:56:30;101052.13;;;9.16;100.00
65329;BME280;51941;52.210;5.158;2023-03-19T04:58:57;101054.81;;;9.10;100.00
65329;BME280;51941;52.210;5.158;2023-03-19T05:01:27;101057.94;;;9.00;100.00
65329;BME280;51941;52.210;5.158;2023-03-19T05:04:04;101066.13;;;8.92;100.00
65329;BME280;51941;52.210;5.158;2023-03-19T05:06:33;101072.47;;;8.85;100.00
65329;BME280;51941;52.210;5.158;2023-03-19T05:09:00;101072.50;;;8.78;100.00
65329;BME280;51941;52.210;5.158;2023-03-19T05:11:27;101046.66;;;8.55;100.00
65329;BME280;51941;52.210;5.158;2023-03-19T05:14:01;101046.66;;;8.55;100.00
65329;BME280;51941;52.210;5.158;2023-03-19T05:16:39;101080.75;;;8.88;100.00
65329;BME280;51941;52.210;5.158;2023-03-19T05:19:06;101083.75;;;8.98;100.00
65329;BME280;51941;52.210;5.158;2023-03-19T05:21:33;101071.19;;;8.94;100.00
65329;BME280;51941;52.210;5.158;2023-03-19T05:24:01;101094.19;;;9.11;100.00
65329;BME280;51941;52.210;5.158;2023-03-19T05:26:32;101099.63;;;9.23;100.00
65329;BME280;51941;52.210;5.158;2023-03-19T05:29:14;101096.13;;;9.29;100.00
65329;BME280;51941;52.210;5.158;2023-03-19T05:31:55;101096.09;;;9.36;100.00
65329;BME280;51941;52.210;5.158;2023-03-19T05:34:22;101103.34;;;9.40;100.00
65329;BME280;51941;52.210;5.158;2023-03-19T05:36:49;101102.72;;;9.45;100.00
65329;BME280;51941;52.210;5.158;2023-03-19T05:39:17;101100.06;;;9.45;100.00
65329;BME280;51941;52.210;5.158;2023-03-19T05:41:45;101088.09;;;9.42;100.00
65329;BME280;51941;52.210;5.158;2023-03-19T05:44:17;101115.06;;;9.51;100.00
65329;BME280;51941;52.210;5.158;2023-03-19T05:47:12;101107.50;;;9.54;100.00
65329;BME280;51941;52.210;5.158;2023-03-19T05:49:47;101120.06;;;9.59;100.00
65329;BME280;51941;52.210;5.158;2023-03-19T05:52:14;101120.47;;;9.56;100.00
65329;BME280;51941;52.210;5.158;2023-03-19T05:54:41;101121.09;;;9.58;100.00
65329;BME280;51941;52.210;5.158;2023-03-19T05:57:17;101121.91;;;9.59;100.00
65329;BME280;51941;52.210;5.158;2023-03-19T05:59:56;101098.59;;;9.49;100.00
65329;BME280;51941;52.210;5.158;2023-03-19T06:02:33;101125.75;;;9.63;100.00
65329;BME280;51941;52.210;5.158;2023-03-19T06:05:20;101087.28;;;9.42;100.00
65329;BME280;51941;52.210;5.158;2023-03-19T06:07:48;101124.84;;;9.69;100.00
65329;BME280;51941;52.210;5.158;2023-03-19T06:10:28;101128.09;;;9.71;100.00
65329;BME280;51941;52.210;5.158;2023-03-19T06:12:58;101124.84;;;9.69;100.00
65329;BME280;51941;52.210;5.158;2023-03-19T06:15:47;101129.53;;;9.67;100.00
65329;BME280;51941;52.210;5.158;2023-03-19T06:18:42;101131.16;;;9.68;100.00
65329;BME280;51941;52.210;5.158;2023-03-19T06:21:12;101139.69;;;9.70;100.00
65329;BME280;51941;52.210;5.158;2023-03-19T06:23:39;101133.97;;;9.73;100.00
65329;BME280;51941;52.210;5.158;2023-03-19T06:26:07;101139.47;;;9.71;100.00
65329;BME280;51941;52.210;5.158;2023-03-19T06:28:41;101108.16;;;9.50;100.00
65329;BME280;51941;52.210;5.158;2023-03-19T06:31:09;101128.19;;;9.57;100.00
65329;BME280;51941;52.210;5.158;2023-03-19T06:33:56;101154.06;;;9.74;100.00
65329;BME280;51941;52.210;5.158;2023-03-19T06:36:30;101123.94;;;9.56;100.00
65329;BME280;51941;52.210;5.158;2023-03-19T06:38:56;101164.84;;;9.79;100.00
65329;BME280;51941;52.210;5.158;2023-03-19T06:41:23;101169.09;;;9.80;100.00
65329;BME280;51941;52.210;5.158;2023-03-19T06:43:51;101168.63;;;9.83;100.00
65329;BME280;51941;52.210;5.158;2023-03-19T06:46:18;101160.13;;;9.81;100.00
65329;BME280;51941;52.210;5.158;2023-03-19T06:48:45;101151.44;;;9.74;100.00
65329;BME280;51941;52.210;5.158;2023-03-19T06:51:13;101173.78;;;9.78;100.00
65329;BME280;51941;52.210;5.158;2023-03-19T06:53:39;101174.38;;;9.80;100.00
65329;BME280;51941;52.210;5.158;2023-03-19T06:56:06;101183.00;;;9.93;100.00
65329;BME280;51941;52.210;5.158;2023-03-19T06:58:33;101194.81;;;9.91;100.00
65329;BME280;51941;52.210;5.158;2023-03-19T07:01:00;101173.19;;;9.76;100.00
65329;BME280;51941;52.210;5.158;2023-03-19T07:03:27;101190.56;;;9.90;100.00
65329;BME280;51941;52.210;5.158;2023-03-19T07:05:54;101195.19;;;9.94;100.00
65329;BME280;51941;52.210;5.158;2023-03-19T07:08:22;101204.00;;;9.88;100.00
65329;BME280;51941;52.210;5.158;2023-03-19T07:10:52;101194.50;;;9.81;100.00
65329;BME280;51941;52.210;5.158;2023-03-19T07:13:18;101203.81;;;9.83;100.00
65329;BME280;51941;52.210;5.158;2023-03-19T07:15:46;101192.72;;;9.75;100.00
65329;BME280;51941;52.210;5.158;2023-03-19T07:18:12;101206.84;;;9.87;100.00
65329;BME280;51941;52.210;5.158;2023-03-19T07:20:39;101207.47;;;9.89;100.00
65329;BME280;51941;52.210;5.158;2023-03-19T07:23:06;101220.41;;;9.97;100.00
65329;BME280;51941;52.210;5.158;2023-03-19T07:25:34;101228.53;;;9.96;100.00
65329;BME280;51941;52.210;5.158;2023-03-19T07:28:01;101230.53;;;10.00;100.00
65329;BME280;51941;52.210;5.158;2023-03-19T07:30:28;101234.56;;;10.03;100.00
65329;BME280;51941;52.210;5.158;2023-03-19T07:32:54;101231.50;;;10.06;100.00
65329;BME280;51941;52.210;5.158;2023-03-19T07:35:21;101228.41;;;10.09;100.00
65329;BME280;51941;52.210;5.158;2023-03-19T07:37:47;101239.00;;;10.09;100.00
65329;BME280;51941;52.210;5.158;2023-03-19T07:40:14;101234.75;;;10.08;100.00
65329;BME280;51941;52.210;5.158;2023-03-19T07:42:42;101242.03;;;10.12;100.00
65329;BME280;51941;52.210;5.158;2023-03-19T07:45:09;101232.84;;;10.15;100.00
65329;BME280;51941;52.210;5.158;2023-03-19T07:47:36;101243.56;;;10.20;100.00
65329;BME280;51941;52.210;5.158;2023-03-19T07:50:03;101235.03;;;10.18;100.00
65329;BME280;51941;52.210;5.158;2023-03-19T07:52:30;101238.69;;;10.23;100.00
65329;BME280;51941;52.210;5.158;2023-03-19T07:54:57;101235.56;;;10.26;100.00
65329;BME280;51941;52.210;5.158;2023-03-19T07:57:24;101247.94;;;10.32;100.00
65329;BME280;51941;52.210;5.158;2023-03-19T07:59:52;101251.22;;;10.28;100.00
65329;BME280;51941;52.210;5.158;2023-03-19T08:02:19;101250.38;;;10.34;100.00
65329;BME280;51941;52.210;5.158;2023-03-19T08:04:46;101259.50;;;10.38;100.00
65329;BME280;51941;52.210;5.158;2023-03-19T08:07:12;101241.97;;;10.37;100.00
65329;BME280;51941;52.210;5.158;2023-03-19T08:09:40;101260.44;;;10.62;100.00
65329;BME280;51941;52.210;5.158;2023-03-19T08:12:07;101263.63;;;10.70;100.00
65329;BME280;51941;52.210;5.158;2023-03-19T08:14:35;101254.84;;;10.77;100.00
65329;BME280;51941;52.210;5.158;2023-03-19T08:17:03;101263.34;;;10.79;100.00
65329;BME280;51941;52.210;5.158;2023-03-19T08:19:30;101241.88;;;10.68;100.00
65329;BME280;51941;52.210;5.158;2023-03-19T08:21:56;101267.41;;;10.81;100.00
65329;BME280;51941;52.210;5.158;2023-03-19T08:24:23;101278.16;;;10.86;100.00
65329;BME280;51941;52.210;5.158;2023-03-19T08:26:50;101273.41;;;10.88;100.00
65329;BME280;51941;52.210;5.158;2023-03-19T08:29:17;101277.03;;;10.94;100.00
65329;BME280;51941;52.210;5.158;2023-03-19T08:31:43;101273.81;;;10.92;100.00
65329;BME280;51941;52.210;5.158;2023-03-19T08:34:12;101280.19;;;11.02;100.00
65329;BME280;51941;52.210;5.158;2023-03-19T08:36:39;101234.06;;;10.74;100.00
65329;BME280;51941;52.210;5.158;2023-03-19T08:39:05;101281.50;;;11.12;100.00
65329;BME280;51941;52.210;5.158;2023-03-19T08:41:32;101268.06;;;10.95;100.00
65329;BME280;51941;52.210;5.158;2023-03-19T08:43:59;101264.81;;;10.93;100.00
65329;BME280;51941;52.210;5.158;2023-03-19T08:46:26;101296.69;;;11.04;100.00
65329;BME280;51941;52.210;5.158;2023-03-19T08:48:53;101304.16;;;11.07;100.00
65329;BME280;51941;52.210;5.158;2023-03-19T08:51:21;101301.31;;;11.09;100.00
65329;BME280;51941;52.210;5.158;2023-03-19T08:53:50;101314.34;;;11.11;100.00
65329;BME280;51941;52.210;5.158;2023-03-19T08:56:17;101279.91;;;10.92;100.00
65329;BME280;51941;52.210;5.158;2023-03-19T08:58:43;101311.47;;;11.12;100.00
65329;BME280;51941;52.210;5.158;2023-03-19T09:01:12;101297.03;;;11.08;100.00
65329;BME280;51941;52.210;5.158;2023-03-19T09:03:40;101307.75;;;11.31;100.00
65329;BME280;51941;52.210;5.158;2023-03-19T09:06:09;101315.63;;;11.38;100.00
65329;BME280;51941;52.210;5.158;2023-03-19T09:08:37;101316.34;;;11.45;100.00
65329;BME280;51941;52.210;5.158;2023-03-19T09:11:04;101301.84;;;11.48;100.00
65329;BME280;51941;52.210;5.158;2023-03-19T09:13:31;101317.78;;;11.59;100.00
65329;BME280;51941;52.210;5.158;2023-03-19T09:15:58;101319.28;;;11.67;100.00
65329;BME280;51941;52.210;5.158;2023-03-19T09:18:25;101319.97;;;11.62;100.00
65329;BME280;51941;52.210;5.158;2023-03-19T09:20:53;101321.81;;;11.62;100.00
65329;BME280;51941;52.210;5.158;2023-03-19T09:23:20;101325.88;;;11.64;100.00
65329;BME280;51941;52.210;5.158;2023-03-19T09:25:48;101325.88;;;11.64;100.00
65329;BME280;51941;52.210;5.158;2023-03-19T09:28:15;101333.25;;;11.62;100.00
65329;BME280;51941;52.210;5.158;2023-03-19T09:30:44;101329.91;;;11.67;100.00
65329;BME280;51941;52.210;5.158;2023-03-19T09:33:13;101339.84;;;11.71;100.00
65329;BME280;51941;52.210;5.158;2023-03-19T09:35:40;101344.56;;;11.69;100.00
65329;BME280;51941;52.210;5.158;2023-03-19T09:38:07;101343.72;;;11.57;100.00
65329;BME280;51941;52.210;5.158;2023-03-19T09:40:35;101339.88;;;11.53;100.00
65329;BME280;51941;52.210;5.158;2023-03-19T09:43:24;101353.84;;;11.60;100.00
65329;BME280;51941;52.210;5.158;2023-03-19T09:45:56;101363.88;;;11.58;100.00
65329;BME280;51941;52.210;5.158;2023-03-19T09:48:30;101364.03;;;11.63;100.00
65329;BME280;51941;52.210;5.158;2023-03-19T09:51:04;101364.63;;;11.65;100.00
65329;BME280;51941;52.210;5.158;2023-03-19T09:53:37;101359.16;;;11.60;100.00
65329;BME280;51941;52.210;5.158;2023-03-19T09:56:07;101373.28;;;11.72;100.00
65329;BME280;51941;52.210;5.158;2023-03-19T09:58:39;101377.56;;;11.73;100.00
65329;BME280;51941;52.210;5.158;2023-03-19T10:01:06;101371.56;;;11.78;100.00
65329;BME280;51941;52.210;5.158;2023-03-19T10:03:41;101373.31;;;11.84;100.00
65329;BME280;51941;52.210;5.158;2023-03-19T10:06:29;101377.38;;;11.87;100.00
65329;BME280;51941;52.210;5.158;2023-03-19T10:09:14;101382.06;;;11.73;100.00
65329;BME280;51941;52.210;5.158;2023-03-19T10:11:53;101379.31;;;11.79;100.00
65329;BME280;51941;52.210;5.158;2023-03-19T10:14:47;101376.88;;;11.78;100.00
65329;BME280;51941;52.210;5.158;2023-03-19T10:17:18;101387.66;;;11.95;100.00
65329;BME280;51941;52.210;5.158;2023-03-19T10:19:50;101371.41;;;12.03;100.00
65329;BME280;51941;52.210;5.158;2023-03-19T10:22:21;101386.38;;;12.15;100.00
65329;BME280;51941;52.210;5.158;2023-03-19T10:24:52;101388.69;;;12.24;100.00
65329;BME280;51941;52.210;5.158;2023-03-19T10:27:21;101366.03;;;12.09;100.00
65329;BME280;51941;52.210;5.158;2023-03-19T10:29:50;101388.00;;;12.28;100.00
65329;BME280;51941;52.210;5.158;2023-03-19T10:32:19;101391.03;;;12.32;100.00
65329;BME280;51941;52.210;5.158;2023-03-19T10:34:50;101390.34;;;12.36;100.00
65329;BME280;51941;52.210;5.158;2023-03-19T10:37:20;101396.00;;;12.40;100.00
65329;BME280;51941;52.210;5.158;2023-03-19T10:39:48;101393.56;;;12.38;100.00
65329;BME280;51941;52.210;5.158;2023-03-19T10:42:37;101395.50;;;12.31;100.00
65329;BME280;51941;52.210;5.158;2023-03-19T10:45:19;101403.63;;;12.36;100.00
65329;BME280;51941;52.210;5.158;2023-03-19T10:47:46;101402.91;;;12.41;100.00
65329;BME280;51941;52.210;5.158;2023-03-19T10:50:15;101401.63;;;12.32;100.00
65329;BME280;51941;52.210;5.158;2023-03-19T10:52:43;101405.22;;;12.37;100.00
65329;BME280;51941;52.210;5.158;2023-03-19T10:55:14;101414.72;;;12.45;100.00
65329;BME280;51941;52.210;5.158;2023-03-19T10:57:41;101413.44;;;12.47;100.00
65329;BME280;51941;52.210;5.158;2023-03-19T11:00:15;101422.91;;;12.55;100.00
65329;BME280;51941;52.210;5.158;2023-03-19T11:02:47;101416.91;;;12.60;100.00
65329;BME280;51941;52.210;5.158;2023-03-19T11:05:23;101416.34;;;12.57;100.00
65329;BME280;51941;52.210;5.158;2023-03-19T11:07:54;101418.66;;;12.66;100.00
65329;BME280;51941;52.210;5.158;2023-03-19T11:10:23;101403.41;;;12.61;100.00
65329;BME280;51941;52.210;5.158;2023-03-19T11:12:54;101398.22;;;12.66;100.00
65329;BME280;51941;52.210;5.158;2023-03-19T11:15:25;101409.31;;;12.86;100.00
65329;BME280;51941;52.210;5.158;2023-03-19T11:17:57;101413.25;;;12.96;100.00
65329;BME280;51941;52.210;5.158;2023-03-19T11:20:30;101408.25;;;12.99;100.00
65329;BME280;51941;52.210;5.158;2023-03-19T11:22:58;101408.03;;;13.01;100.00
65329;BME280;51941;52.210;5.158;2023-03-19T11:25:28;101413.22;;;13.07;100.00
65329;BME280;51941;52.210;5.158;2023-03-19T11:28:00;101410.09;;;13.10;100.00
65329;BME280;51941;52.210;5.158;2023-03-19T11:30:36;101410.44;;;13.14;100.00
65329;BME280;51941;52.210;5.158;2023-03-19T11:36:01;101386.75;;;13.12;100.00
65329;BME280;51941;52.210;5.158;2023-03-19T11:38:38;101415.84;;;13.30;99.75
65329;BME280;51941;52.210;5.158;2023-03-19T11:41:14;101408.97;;;13.06;98.35
65329;BME280;51941;52.210;5.158;2023-03-19T11:43:51;101420.72;;;13.22;98.96
65329;BME280;51941;52.210;5.158;2023-03-19T11:46:32;101424.50;;;13.26;98.83
65329;BME280;51941;52.210;5.158;2023-03-19T11:49:29;101418.06;;;13.34;98.80
65329;BME280;51941;52.210;5.158;2023-03-19T11:52:03;101394.47;;;13.25;98.30
65329;BME280;51941;52.210;5.158;2023-03-19T11:54:42;101417.13;;;13.40;97.82
65329;BME280;51941;52.210;5.158;2023-03-19T11:57:14;101424.03;;;13.52;98.28
65329;BME280;51941;52.210;5.158;2023-03-19T11:59:56;101426.00;;;13.57;97.18
65329;BME280;51941;52.210;5.158;2023-03-19T12:02:57;101430.13;;;13.64;97.02
65329;BME280;51941;52.210;5.158;2023-03-19T12:05:34;101424.59;;;13.66;96.70
65329;BME280;51941;52.210;5.158;2023-03-19T12:08:18;101428.38;;;13.70;96.24
65329;BME280;51941;52.210;5.158;2023-03-19T12:11:00;101430.59;;;13.61;95.46
65329;BME280;51941;52.210;5.158;2023-03-19T12:13:36;101401.38;;;13.38;95.28
65329;BME280;51941;52.210;5.158;2023-03-19T12:16:14;101417.47;;;13.43;95.31
65329;BME280;51941;52.210;5.158;2023-03-19T12:21:47;101433.50;;;13.60;95.53
65329;BME280;51941;52.210;5.158;2023-03-19T12:24:23;101382.56;;;13.28;94.85
65329;BME280;51941;52.210;5.158;2023-03-19T12:27:03;101440.75;;;13.76;94.79
65329;BME280;51941;52.210;5.158;2023-03-19T12:29:38;101441.88;;;13.80;93.99
65329;BME280;51941;52.210;5.158;2023-03-19T12:32:20;101450.19;;;13.84;93.79
65329;BME280;51941;52.210;5.158;2023-03-19T12:34:54;101447.72;;;13.65;93.01
65329;BME280;51941;52.210;5.158;2023-03-19T12:37:28;101444.16;;;13.48;93.05
65329;BME280;51941;52.210;5.158;2023-03-19T12:40:10;101394.84;;;13.06;93.43
65329;BME280;51941;52.210;5.158;2023-03-19T12:42:40;101429.16;;;13.30;94.22
65329;BME280;51941;52.210;5.158;2023-03-19T12:45:18;101444.53;;;13.40;93.76
65329;BME280;51941;52.210;5.158;2023-03-19T12:47:50;101457.03;;;13.40;93.83
65329;BME280;51941;52.210;5.158;2023-03-19T12:50:20;101456.22;;;13.39;93.68
65329;BME280;51941;52.210;5.158;2023-03-19T12:52:49;101438.06;;;13.24;93.72
65329;BME280;51941;52.210;5.158;2023-03-19T12:55:17;101461.63;;;13.32;93.73
65329;BME280;51941;52.210;5.158;2023-03-19T12:57:48;101464.84;;;13.35;94.20
65329;BME280;51941;52.210;5.158;2023-03-19T13:00:21;101457.59;;;13.30;94.52
65329;BME280;51941;52.210;5.158;2023-03-19T13:02:55;101461.72;;;13.38;94.64
65329;BME280;51941;52.210;5.158;2023-03-19T13:05:30;101462.94;;;13.42;94.48
65329;BME280;51941;52.210;5.158;2023-03-19T13:08:02;101461.53;;;13.51;94.62
65329;BME280;51941;52.210;5.158;2023-03-19T13:10:34;101460.13;;;13.60;94.63